»·PEaware :: QXE2303 KRDM-KPDX

QXE2303 :: KRDM-KPDX

FLIGHT INFORMATION

Flight Status: Arrived
Operator:
Horizon Air
More flights by this operator :: More flights under this callsign
Pilot: Doug L. (8712)
Aircraft: DEHAVILLAND DASH 8 400
(DH8D)
More flights by this aircraft type
Origin: KRDM Roberts
United States
Destination: KPDX Portland Intl
United States
More flights between these airports :: More routes between these airports
Route: DSD V165 MAVER V448 BTG
File this flight plan on PilotEdge
Remarks:
Altitude:
(Current/Filed)
16,000ft
Speed:
(Current/Filed)
335kts
Departed: 11-Mar-19 06:22 PM
Arrived: 11-Mar-19 07:02 PM
Distance/Time
Traveled:
101nm/0:39
Distance/Time
To Go:
Arrived

Flight Plot

Page will automatically refresh every two minutes.

Flight plan parsing failed; only flown route is shown


Map Options




Map Legend


Flown Route
Filed Route
Departure Airport
Arrival Airport
Navaid (VOR, NDB)
Fix

Horizontal Profiles

Position Reports

Time Latitude Longitude Heading Altitude Ground
Speed
11-Mar-19 18:08 44.252279 -121.161591 328 3084ft 0kts
11-Mar-19 18:09 44.252279 -121.161591 328 3084ft 0kts
11-Mar-19 18:10 44.252279 -121.161591 328 3084ft 0kts
11-Mar-19 18:11 44.252279 -121.161591 328 3084ft 0kts
11-Mar-19 18:12 44.252279 -121.161591 328 3084ft 0kts
11-Mar-19 18:13 44.252279 -121.161591 328 3084ft 0kts
11-Mar-19 18:14 44.252279 -121.161591 328 3084ft 0kts
11-Mar-19 18:15 44.252279 -121.161591 328 3084ft 0kts
11-Mar-19 18:16 44.251687 -121.161100 329 3084ft 4kts
11-Mar-19 18:17 44.251520 -121.160962 329 3084ft 0kts
11-Mar-19 18:18 44.251517 -121.160960 329 3084ft 0kts
11-Mar-19 18:19 44.251412 -121.161987 229 3084ft 6kts
11-Mar-19 18:20 44.250341 -121.162103 146 3084ft 3kts
11-Mar-19 18:21 44.255078 -121.148233 59 3130ft 130kts
11-Mar-19 18:22 44.277611 -121.115872 279 3810ft 152kts
11-Mar-19 18:23 44.255559 -121.147168 241 3085ft 84kts
11-Mar-19 18:24 44.254086 -121.153537 250 3084ft 14kts
11-Mar-19 18:25 44.253999 -121.153824 245 3084ft 0kts
11-Mar-19 18:26 44.253999 -121.153824 245 3084ft 0kts
11-Mar-19 18:27 44.253999 -121.153824 245 3084ft 0kts
11-Mar-19 18:28 44.253999 -121.153824 245 3084ft 0kts
11-Mar-19 18:29 44.252241 -121.158135 239 3084ft 14kts
11-Mar-19 18:30 44.249776 -121.161181 61 3084ft 7kts
11-Mar-19 18:31 44.263429 -121.125515 61 4220ft 148kts
11-Mar-19 18:32 44.293556 -121.136069 287 7221ft 148kts
11-Mar-19 18:33 44.306983 -121.192464 285 9792ft 158kts
11-Mar-19 18:34 44.320289 -121.252986 283 11935ft 160kts
11-Mar-19 18:35 44.333053 -121.313949 284 13785ft 166kts
11-Mar-19 18:36 44.341980 -121.355936 285 14903ft 165kts
11-Mar-19 18:37 44.348339 -121.385882 285 15509ft 170kts
11-Mar-19 18:38 44.365001 -121.461177 291 16014ft 247kts
11-Mar-19 18:39 44.400102 -121.522432 309 16011ft 289kts
11-Mar-19 18:40 44.449283 -121.595609 311 16011ft 314kts
11-Mar-19 18:41 44.508940 -121.684390 311 16011ft 327kts
11-Mar-19 18:42 44.571048 -121.777464 310 16014ft 333kts
11-Mar-19 18:43 44.634211 -121.872441 310 16017ft 335kts
11-Mar-19 18:44 44.697421 -121.967955 310 16020ft 336kts
11-Mar-19 18:45 44.759404 -122.061460 310 14859ft 320kts
11-Mar-19 18:46 44.818468 -122.151380 310 12955ft 310kts
11-Mar-19 18:47 44.873380 -122.235030 309 12035ft 266kts
11-Mar-19 18:48 44.918193 -122.304423 308 12049ft 243kts
11-Mar-19 18:49 44.965742 -122.376938 308 12015ft 260kts
11-Mar-19 18:50 45.021335 -122.443655 336 11347ft 286kts
11-Mar-19 18:51 45.097533 -122.482379 335 9569ft 303kts
11-Mar-19 18:52 45.174495 -122.523003 336 7799ft 285kts
11-Mar-19 18:53 45.238884 -122.557652 335 6068ft 242kts
11-Mar-19 18:54 45.298728 -122.590633 335 4335ft 242kts
11-Mar-19 18:55 45.358867 -122.625471 335 3048ft 222kts
11-Mar-19 18:56 45.413472 -122.644491 350 2995ft 191kts
11-Mar-19 18:57 45.466133 -122.654022 351 3038ft 197kts
11-Mar-19 18:58 45.516222 -122.665480 353 1811ft 172kts
11-Mar-19 18:59 45.553997 -122.655459 33 925ft 116kts
11-Mar-19 19:01 45.576587 -122.625146 48 253ft 108kts
11-Mar-19 19:02 45.590272 -122.605343 105 37ft 8kts
11-Mar-19 19:03 45.589405 -122.602043 63 37ft 16kts
11-Mar-19 19:04 45.586353 -122.593864 129 37ft 23kts
11-Mar-19 19:05 45.585481 -122.591233 75 37ft 0kts

Navigation Log

Ident Type
Flight plan parsing failed, navigation log unavailable